Time;durP1;ratioP1;P1;durP2;ratioP2;P2;SDS_P1;SDS_P2;PMS_P1;PMS_P2;Temp;Humidity;BMP_temperature;BMP_pressure;BME280_temperature;BME280_humidity;BME280_pressure;Samples;Min_cycle;Max_cycle;Signal;HPM_P1;HPM_P2
2022/04/16 00:01:10;;;;;;;13.80;8.68;;;;;;;10.94;84.29;100594.00;4500311;31;20079;-68
2022/04/16 00:03:57;;;;;;;13.45;9.15;;;;;;;10.89;84.59;100598.47;4500293;31;20558;-68
2022/04/16 00:06:25;;;;;;;12.60;8.00;;;;;;;10.84;85.07;100594.09;4500120;31;20103;-68
2022/04/16 00:08:54;;;;;;;12.23;7.90;;;;;;;10.76;85.38;100592.41;4500174;31;20466;-68
2022/04/16 00:11:21;;;;;;;12.95;8.25;;;;;;;10.67;85.69;100597.78;4502410;31;20447;-68
2022/04/16 00:13:50;;;;;;;13.93;8.68;;;;;;;10.67;85.80;100596.91;4502528;31;20491;-68
2022/04/16 00:16:17;;;;;;;13.32;8.52;;;;;;;10.58;85.50;100587.31;4502340;31;20155;-68
2022/04/16 00:18:45;;;;;;;12.52;8.38;;;;;;;10.58;85.39;100589.09;4502626;31;20662;-68
2022/04/16 00:21:12;;;;;;;13.30;7.78;;;;;;;10.47;85.47;100584.78;4502548;31;20080;-68
2022/04/16 00:23:41;;;;;;;11.23;7.43;;;;;;;10.44;85.21;100595.34;4502470;31;20399;-68
2022/04/16 00:26:08;;;;;;;14.80;8.38;;;;;;;10.35;85.18;100576.97;4502468;31;20806;-68
2022/04/16 00:28:35;;;;;;;12.05;7.62;;;;;;;10.25;84.64;100570.00;4502349;31;20095;-68
2022/04/16 00:31:02;;;;;;;11.77;7.75;;;;;;;10.28;83.63;100576.16;4502409;31;20489;-68
2022/04/16 00:33:32;;;;;;;11.00;7.70;;;;;;;10.24;82.90;100573.50;4502554;31;20096;-68
2022/04/16 00:36:02;;;;;;;11.77;7.45;;;;;;;10.24;82.45;100576.13;4502216;31;20759;-68
2022/04/16 00:38:30;;;;;;;10.90;7.03;;;;;;;10.20;82.20;100580.56;4502377;31;20131;-68
2022/04/16 00:40:57;;;;;;;12.07;8.48;;;;;;;10.17;82.54;100579.69;4502270;31;20438;-68
2022/04/16 00:43:27;;;;;;;10.05;7.32;;;;;;;10.11;82.56;100567.47;4502228;31;20080;-68
2022/04/16 00:45:55;;;;;;;9.52;6.80;;;;;;;10.06;83.04;100571.88;4502362;31;20436;-68
2022/04/16 00:48:23;;;;;;;11.93;7.30;;;;;;;9.95;83.52;100571.09;4502413;31;20167;-68
2022/04/16 00:50:53;;;;;;;16.30;7.62;;;;;;;9.91;83.77;100554.44;4502202;31;20080;-68
2022/04/16 00:53:21;;;;;;;12.37;7.05;;;;;;;9.85;83.30;100550.97;4502376;31;20147;-68
2022/04/16 00:55:49;;;;;;;11.45;7.10;;;;;;;9.83;83.06;100543.09;4502109;31;20481;-68
2022/04/16 00:58:16;;;;;;;9.10;6.53;;;;;;;9.79;82.92;100550.13;4502088;31;20099;-68
2022/04/16 01:00:43;;;;;;;12.50;6.37;;;;;;;9.75;82.30;100551.03;4502130;31;20100;-68
2022/04/16 01:03:10;;;;;;;8.50;6.40;;;;;;;9.71;82.52;100548.41;4502033;31;20100;-68
2022/04/16 01:05:38;;;;;;;9.48;6.53;;;;;;;9.65;82.65;100540.56;4502129;31;20473;-68
2022/04/16 01:08:05;;;;;;;8.85;6.18;;;;;;;9.59;82.91;100538.84;4502221;31;20411;-68
2022/04/16 01:10:34;;;;;;;9.52;6.45;;;;;;;9.51;83.42;100532.75;4501975;31;20119;-68
2022/04/16 01:13:03;;;;;;;11.02;6.82;;;;;;;9.50;83.10;100541.50;4502006;31;20088;-68
2022/04/16 01:15:31;;;;;;;9.35;6.82;;;;;;;9.40;83.68;100540.69;4501891;31;20147;-68
2022/04/16 01:18:02;;;;;;;9.43;6.35;;;;;;;9.37;83.52;100545.97;4502055;31;20115;-68
2022/04/16 01:20:33;;;;;;;8.63;6.43;;;;;;;9.32;83.57;100527.56;4501737;31;20529;-68
2022/04/16 01:23:02;;;;;;;9.35;5.90;;;;;;;9.27;83.63;100550.38;4501957;31;20155;-68
2022/04/16 01:25:33;;;;;;;9.32;5.87;;;;;;;9.21;84.37;100552.16;4501732;31;20464;-68
2022/04/16 01:28:01;;;;;;;10.45;6.50;;;;;;;9.15;84.09;100553.06;4501995;31;20111;-68
2022/04/16 01:30:30;;;;;;;8.63;6.50;;;;;;;9.08;84.71;100557.47;4501884;31;20110;-68
2022/04/16 01:32:57;;;;;;;10.07;6.65;;;;;;;9.00;84.87;100563.59;4502057;31;20088;-68
2022/04/16 01:35:24;;;;;;;9.52;6.53;;;;;;;8.98;85.00;100566.25;4501949;31;20110;-68
2022/04/16 01:37:52;;;;;;;9.75;6.70;;;;;;;8.91;85.45;100564.53;4501814;31;20190;-68
2022/04/16 01:40:20;;;;;;;9.35;6.32;;;;;;;8.88;86.17;100556.66;4501959;31;20154;-68
2022/04/16 01:42:48;;;;;;;9.45;6.53;;;;;;;8.84;86.63;100560.16;4501851;31;20447;-68
2022/04/16 01:45:18;;;;;;;10.65;6.90;;;;;;;8.79;86.28;100562.78;4501812;31;20225;-68
2022/04/16 01:47:46;;;;;;;8.88;7.18;;;;;;;8.72;86.75;100578.56;4502159;31;20100;-68
2022/04/16 01:50:13;;;;;;;8.95;6.95;;;;;;;8.82;86.78;100582.91;4501704;31;20144;-68
2022/04/16 01:52:42;;;;;;;10.07;6.75;;;;;;;8.87;86.42;100578.56;4501684;31;20451;-68
2022/04/16 01:55:10;;;;;;;8.50;6.45;;;;;;;8.82;86.51;100577.66;4501930;31;20087;-68
2022/04/16 01:57:38;;;;;;;14.77;6.60;;;;;;;8.70;87.08;100575.06;4501775;31;20174;-68
2022/04/16 02:00:08;;;;;;;11.00;6.78;;;;;;;8.55;87.88;100578.56;4501696;31;20183;-68
2022/04/16 02:02:36;;;;;;;10.32;6.95;;;;;;;8.47;88.40;100580.31;4501739;31;20124;-68
2022/04/16 02:05:05;;;;;;;9.05;6.55;;;;;;;8.48;87.85;100582.06;4501645;31;20088;-68
2022/04/16 02:07:33;;;;;;;9.15;6.47;;;;;;;8.48;88.27;100574.19;4501554;31;20107;-68
2022/04/16 02:10:01;;;;;;;10.38;6.72;;;;;;;8.35;88.48;100576.78;4501582;31;20184;-68
2022/04/16 02:12:28;;;;;;;10.20;7.12;;;;;;;8.37;89.38;100572.47;4501607;31;20095;-68
2022/04/16 02:14:55;;;;;;;12.57;6.40;;;;;;;8.35;89.73;100565.41;4501703;31;20501;-68
2022/04/16 02:17:23;;;;;;;12.45;7.05;;;;;;;8.32;89.37;100568.03;4501565;31;20159;-68
2022/04/16 02:19:50;;;;;;;11.00;7.75;;;;;;;8.38;89.54;100568.09;4501587;31;20168;-68
2022/04/16 02:22:17;;;;;;;11.80;7.75;;;;;;;8.40;89.56;100562.81;4501511;31;20147;-68
2022/04/16 02:24:46;;;;;;;10.75;7.25;;;;;;;8.42;89.48;100563.72;4501349;31;20116;-68
2022/04/16 02:27:14;;;;;;;13.45;7.45;;;;;;;8.43;89.17;100563.69;4501481;31;20129;-68
2022/04/16 02:29:43;;;;;;;12.23;6.90;;;;;;;8.43;89.34;100561.06;4501367;31;20483;-68
2022/04/16 02:32:11;;;;;;;9.13;6.87;;;;;;;8.38;89.54;100560.22;4500414;31;20134;-68
2022/04/16 02:34:38;;;;;;;11.95;7.05;;;;;;;8.33;90.07;100565.41;4501596;31;20103;-68
2022/04/16 02:37:05;;;;;;;11.52;7.70;;;;;;;8.31;89.89;100559.28;4501680;31;20113;-68
2022/04/16 02:39:33;;;;;;;13.73;7.45;;;;;;;8.27;90.16;100564.53;4501453;31;20434;-68
2022/04/16 02:42:00;;;;;;;9.57;7.12;;;;;;;8.27;90.41;100564.53;4501521;31;20348;-68
2022/04/16 02:47:13;;;;;;;12.23;8.25;;;;;;;8.32;89.96;100562.78;4501313;31;20882;-68
2022/04/16 02:49:43;;;;;;;13.30;8.45;;;;;;;8.33;90.12;100565.41;4501216;31;20187;-68
2022/04/16 02:52:11;;;;;;;11.75;8.13;;;;;;;8.36;89.78;100562.78;4501324;31;20110;-68
2022/04/16 02:54:38;;;;;;;14.10;8.52;;;;;;;8.37;89.73;100559.34;4501209;31;20466;-68
2022/04/16 02:57:05;;;;;;;15.73;9.70;;;;;;;8.41;89.20;100565.47;4501422;31;20134;-68
2022/04/16 02:59:33;;;;;;;20.12;9.32;;;;;;;8.37;89.16;100561.03;4501291;31;20341;-68
2022/04/16 03:02:01;;;;;;;16.73;8.45;;;;;;;8.40;89.25;100561.06;4501139;31;20080;-68
2022/04/16 03:04:29;;;;;;;10.93;7.43;;;;;;;8.37;88.92;100550.53;4501455;31;20630;-68
2022/04/16 03:06:56;;;;;;;15.18;9.07;;;;;;;8.34;89.96;100555.81;4501062;31;20533;-68
2022/04/16 03:09:23;;;;;;;15.63;8.15;;;;;;;8.25;89.63;100553.16;4501147;31;20151;-68
2022/04/16 03:11:51;;;;;;;19.20;10.73;;;;;;;8.27;89.43;100557.56;4501380;31;20122;-68
2022/04/16 03:19:50;;;;;;;14.75;9.32;;;;;;;8.27;88.95;100551.41;4500980;31;20367;-68
2022/04/16 03:22:18;;;;;;;17.83;9.50;;;;;;;8.20;89.35;100553.16;4500894;31;20726;-68
2022/04/16 03:24:45;;;;;;;15.60;8.60;;;;;;;8.11;89.88;100558.41;4500904;31;20095;-68
2022/04/16 03:27:12;;;;;;;14.20;8.40;;;;;;;8.09;90.12;100555.78;4500919;31;20095;-68
2022/04/16 03:29:39;;;;;;;15.40;9.23;;;;;;;8.00;90.59;100557.53;4500917;31;20144;-68
2022/04/16 03:32:07;;;;;;;13.27;8.35;;;;;;;8.04;90.15;100562.75;4500921;31;20118;-68
2022/04/16 03:34:37;;;;;;;9.95;6.72;;;;;;;8.02;90.16;100563.63;4500688;31;20123;-68
2022/04/16 03:37:04;;;;;;;12.18;7.68;;;;;;;8.13;88.97;100551.41;4500775;31;20083;-68
2022/04/16 03:39:32;;;;;;;12.30;6.78;;;;;;;8.14;88.90;100561.91;4500703;31;20080;-68
2022/04/16 03:41:59;;;;;;;8.75;5.97;;;;;;;8.13;89.03;100575.03;4500666;31;20092;-68
2022/04/16 03:44:26;;;;;;;6.35;5.32;;;;;;;8.10;89.17;100567.16;4501961;31;20509;-68
2022/04/16 03:46:53;;;;;;;5.72;4.93;;;;;;;8.14;89.02;100564.53;4502604;31;20099;-68
2022/04/16 03:49:21;;;;;;;8.43;6.12;;;;;;;8.10;89.09;100554.03;4502770;31;20518;-68
2022/04/16 03:51:48;;;;;;;9.38;6.10;;;;;;;8.08;88.83;100561.03;4502656;31;20092;-68
2022/04/16 03:59:59;;;;;;;5.07;4.53;;;;;;;7.96;89.35;100580.25;4502831;31;20465;-68
2022/04/16 04:02:30;;;;;;;6.78;4.82;;;;;;;7.95;89.72;100578.50;4502631;31;20151;-68
2022/04/16 04:04:58;;;;;;;6.78;5.00;;;;;;;7.98;89.42;100585.50;4502485;31;20127;-68
2022/04/16 04:07:25;;;;;;;8.52;4.87;;;;;;;7.99;89.06;100580.25;4502524;31;20103;-68
2022/04/16 04:09:53;;;;;;;6.10;4.50;;;;;;;7.92;90.17;100586.37;4502409;31;20087;-68
2022/04/16 04:12:20;;;;;;;4.65;4.20;;;;;;;7.95;89.73;100583.75;4502489;31;20177;-68
2022/04/16 04:14:47;;;;;;;8.07;5.60;;;;;;;8.00;89.52;100589.87;4502457;31;20100;-68
2022/04/16 04:17:15;;;;;;;7.97;4.72;;;;;;;8.02;89.28;100588.16;4502675;31;20095;-68
2022/04/16 04:19:44;;;;;;;7.25;5.10;;;;;;;7.98;89.56;100596.84;4499896;31;75865;-68
2022/04/16 04:22:13;;;;;;;9.23;4.82;;;;;;;8.02;89.29;100593.41;4502483;31;20114;-68
2022/04/16 04:24:41;;;;;;;7.72;5.65;;;;;;;8.00;89.41;100603.00;4502286;31;20188;-68
2022/04/16 04:27:08;;;;;;;6.95;4.87;;;;;;;8.04;89.22;100598.62;4502487;31;20138;-68
2022/04/16 04:29:36;;;;;;;6.60;4.87;;;;;;;8.05;89.22;100606.50;4502354;31;20152;-68
2022/04/16 04:32:05;;;;;;;7.47;5.62;;;;;;;8.03;89.29;100605.63;4502310;31;20184;-68
2022/04/16 04:34:32;;;;;;;8.10;5.65;;;;;;;7.99;89.92;100603.88;4502267;31;20115;-68
2022/04/16 04:37:00;;;;;;;8.73;4.85;;;;;;;8.00;89.34;100607.38;4502248;31;20587;-68
2022/04/16 04:39:27;;;;;;;7.37;5.45;;;;;;;8.05;89.02;100608.25;4502400;31;20080;-68
2022/04/16 04:41:54;;;;;;;7.60;5.15;;;;;;;8.05;89.17;100622.25;4487555;31;20099;-68
2022/04/16 04:44:22;;;;;;;8.20;5.97;;;;;;;8.12;88.50;100618.75;4502176;31;20538;-68
2022/04/16 04:46:53;;;;;;;6.50;5.50;;;;;;;8.09;88.95;100618.78;4502291;31;20087;-68
2022/04/16 04:49:20;;;;;;;7.78;5.68;;;;;;;8.09;89.46;100613.53;4502178;31;20499;-68
2022/04/16 04:51:48;;;;;;;7.22;5.82;;;;;;;8.16;88.49;100606.50;4502002;31;20117;-68
2022/04/16 04:54:15;;;;;;;7.60;5.70;;;;;;;8.17;88.67;100604.78;4502322;31;20087;-68
2022/04/16 04:56:42;;;;;;;7.40;5.72;;;;;;;8.21;88.17;100599.53;4501592;31;20179;-68
2022/04/16 04:59:10;;;;;;;8.82;5.90;;;;;;;8.26;87.95;100602.16;4502131;31;20088;-68
2022/04/16 05:01:37;;;;;;;7.03;5.78;;;;;;;8.32;87.83;100616.16;4502134;31;20084;-68
2022/04/16 05:04:04;;;;;;;7.53;5.15;;;;;;;8.33;87.55;100620.53;4502129;31;20453;-68
2022/04/16 05:06:31;;;;;;;6.72;5.43;;;;;;;8.41;87.16;100620.59;4502015;31;20091;-68
2022/04/16 05:08:59;;;;;;;6.30;5.37;;;;;;;8.48;86.62;100624.09;4502246;31;20538;-68
2022/04/16 05:11:26;;;;;;;6.95;5.60;;;;;;;8.54;86.25;100624.09;4502026;31;20186;-68
2022/04/16 05:13:53;;;;;;;8.20;4.78;;;;;;;8.60;85.50;100619.72;4501949;31;20160;-68
2022/04/16 05:16:20;;;;;;;9.23;5.85;;;;;;;8.65;85.48;100606.56;4502027;31;20126;-68
2022/04/16 05:18:48;;;;;;;9.07;5.57;;;;;;;8.74;85.16;100619.72;4502095;31;20123;-68
2022/04/16 05:21:15;;;;;;;7.00;5.40;;;;;;;8.81;84.17;100626.72;4501937;31;20139;-67
2022/04/16 05:23:42;;;;;;;7.45;5.37;;;;;;;8.88;84.01;100621.47;4502067;31;20095;-68
2022/04/16 05:26:10;;;;;;;8.30;4.72;;;;;;;8.98;83.56;100620.56;4501802;31;20169;-68
2022/04/16 05:28:38;;;;;;;9.52;5.82;;;;;;;9.07;82.37;100623.16;4501882;31;20068;-68
2022/04/16 05:31:06;;;;;;;6.85;4.50;;;;;;;9.12;82.03;100636.28;4501907;31;20451;-68
2022/04/16 05:36:20;;;;;;;5.87;4.43;;;;;;;9.16;81.92;100624.91;4502067;31;20095;-68
2022/04/16 05:38:47;;;;;;;5.53;4.55;;;;;;;9.14;81.21;100630.16;4501856;31;20103;-68
2022/04/16 05:41:14;;;;;;;20.52;4.53;;;;;;;9.13;81.86;100640.69;4501790;31;20472;-68
2022/04/16 05:43:42;;;;;;;5.10;4.60;;;;;;;9.22;81.26;100617.00;4501584;31;20403;-68
2022/04/16 05:46:10;;;;;;;4.75;4.25;;;;;;;9.19;81.07;100632.81;4501995;31;20166;-68
2022/04/16 05:48:37;;;;;;;7.32;4.18;;;;;;;9.10;81.32;100639.81;4486756;31;20084;-68
2022/04/16 05:51:04;;;;;;;6.00;4.50;;;;;;;9.04;81.80;100647.69;4501664;31;20195;-68
2022/04/16 05:53:32;;;;;;;5.20;4.28;;;;;;;8.94;82.58;100650.34;4501966;31;20104;-68
2022/04/16 05:55:59;;;;;;;5.05;3.53;;;;;;;8.91;81.99;100653.00;4501687;31;20438;-68
2022/04/16 05:58:27;;;;;;;4.43;3.95;;;;;;;8.91;81.97;100663.50;4501629;31;20102;-68
2022/04/16 06:00:55;;;;;;;5.93;4.70;;;;;;;8.93;82.04;100664.37;4501709;31;20163;-68
2022/04/16 06:03:23;;;;;;;6.20;4.53;;;;;;;9.02;81.28;100667.87;4501621;31;20495;-68
2022/04/16 06:05:54;;;;;;;4.90;3.42;;;;;;;9.18;80.58;100666.09;4501623;31;20445;-68
2022/04/16 06:08:21;;;;;;;3.72;3.42;;;;;;;9.37;79.84;100672.19;4500631;31;20119;-68
2022/04/16 06:10:48;;;;;;;4.53;3.92;;;;;;;9.45;79.01;100675.69;4501600;31;20103;-68
2022/04/16 06:13:15;;;;;;;4.55;3.85;;;;;;;9.54;78.65;100675.66;4501494;31;20095;-68
2022/04/16 06:15:43;;;;;;;4.07;3.60;;;;;;;9.65;78.25;100682.66;4501393;31;20489;-68
2022/04/16 06:18:11;;;;;;;4.03;3.28;;;;;;;9.72;77.80;100682.62;4501460;31;20398;-68
2022/04/16 06:20:38;;;;;;;4.25;3.55;;;;;;;10.02;76.63;100672.81;4501570;31;20135;-68
2022/04/16 06:23:06;;;;;;;4.90;3.25;;;;;;;10.22;75.29;100673.59;4501793;31;20096;-68
2022/04/16 06:25:35;;;;;;;4.20;3.72;;;;;;;10.29;74.39;100680.63;4501522;31;20125;-68
2022/04/16 06:28:02;;;;;;;4.53;3.17;;;;;;;10.35;73.74;100670.91;4501495;31;20096;-68
2022/04/16 06:30:30;;;;;;;5.95;3.37;;;;;;;10.36;73.89;100673.56;4501212;31;20110;-68
2022/04/16 06:32:57;;;;;;;4.95;3.22;;;;;;;10.46;73.16;100674.37;4501203;31;20149;-68
2022/04/16 06:35:24;;;;;;;3.65;2.92;;;;;;;10.43;73.04;100682.28;4501397;31;20469;-68
2022/04/16 06:37:51;;;;;;;4.80;3.87;;;;;;;10.38;73.09;100678.78;4501335;31;20088;-68
2022/04/16 06:40:19;;;;;;;10.10;5.12;;;;;;;10.37;72.96;100670.03;4501378;31;20186;-68
2022/04/16 06:42:46;;;;;;;16.52;7.68;;;;;;;10.37;73.22;100679.69;4501288;31;20092;-68
2022/04/16 06:45:13;;;;;;;11.95;6.55;;;;;;;10.26;73.47;100675.38;4501323;31;20091;-68
2022/04/16 06:47:41;;;;;;;9.35;5.20;;;;;;;10.15;73.99;100677.16;4501319;31;20083;-68
2022/04/16 06:50:09;;;;;;;3.80;3.12;;;;;;;10.21;73.45;100681.50;4501385;31;20164;-68
2022/04/16 06:52:36;;;;;;;8.15;4.60;;;;;;;10.39;73.12;100686.72;4501124;31;20570;-68
2022/04/16 06:55:05;;;;;;;4.80;3.97;;;;;;;10.67;73.46;100683.84;4501169;31;20529;-68
2022/04/16 06:57:32;;;;;;;4.50;3.87;;;;;;;10.90;70.77;100681.94;4501186;31;20087;-68
2022/04/16 07:00:07;;;;;;;6.70;4.65;;;;;;;10.95;70.07;100689.78;4501102;31;20091;-68
2022/04/16 07:02:36;;;;;;;7.40;4.90;;;;;;;10.97;70.22;100685.38;4501157;31;20099;-68
2022/04/16 07:05:05;;;;;;;15.45;7.35;;;;;;;11.08;69.48;100682.66;4501108;31;20423;-68
2022/04/16 07:07:32;;;;;;;10.32;6.18;;;;;;;11.10;69.18;100691.44;4501077;31;20526;-68
2022/04/16 07:10:00;;;;;;;10.70;6.10;;;;;;;11.32;69.01;100689.47;4501012;31;20496;-68
2022/04/16 07:12:27;;;;;;;7.30;4.87;;;;;;;11.57;67.71;100684.81;4500921;31;20130;-68
2022/04/16 07:14:54;;;;;;;5.55;3.58;;;;;;;11.69;65.85;100682.00;4501034;31;20511;-68
2022/04/16 07:17:22;;;;;;;3.20;2.90;;;;;;;11.91;65.95;100680.91;4500999;31;20142;-68
2022/04/16 07:19:49;;;;;;;9.90;5.60;;;;;;;12.11;65.39;100680.63;4500357;31;20122;-68
2022/04/16 07:22:22;;;;;;;4.55;3.25;;;;;;;12.19;65.42;100688.44;4500890;31;20543;-68
2022/04/16 07:24:49;;;;;;;8.05;5.05;;;;;;;12.06;64.24;100698.31;4500709;31;20824;-68
2022/04/16 07:27:17;;;;;;;11.32;6.35;;;;;;;11.98;64.90;100705.47;4500863;31;20080;-68
2022/04/16 07:29:46;;;;;;;14.02;5.82;;;;;;;11.94;64.34;100712.56;4500766;31;20494;-68
2022/04/16 07:32:13;;;;;;;9.68;4.68;;;;;;;11.82;64.35;100711.78;4500686;31;20149;-68
2022/04/16 07:34:40;;;;;;;8.23;5.35;;;;;;;11.71;64.49;100709.28;4500710;31;20126;-68
2022/04/16 07:37:07;;;;;;;9.07;5.70;;;;;;;11.71;64.97;100718.06;4500675;31;20084;-68
2022/04/16 07:39:35;;;;;;;5.72;3.90;;;;;;;11.76;65.34;100718.00;4500830;31;20111;-68
2022/04/16 07:42:02;;;;;;;19.70;7.62;;;;;;;11.80;64.97;100722.38;4500561;31;20091;-68
2022/04/16 07:44:29;;;;;;;17.02;8.45;;;;;;;11.59;65.12;100730.50;4500586;31;20130;-68
2022/04/16 07:46:56;;;;;;;16.77;8.60;;;;;;;11.61;64.96;100731.38;4500566;31;20080;-68
2022/04/16 07:49:23;;;;;;;6.32;4.12;;;;;;;11.65;65.13;100733.09;4500629;31;20087;-68
2022/04/16 07:51:50;;;;;;;18.23;8.88;;;;;;;11.85;65.25;100727.63;4500482;31;20179;-68
2022/04/16 07:54:18;;;;;;;16.77;7.97;;;;;;;12.03;64.94;100724.75;4500342;31;20146;-68
2022/04/16 07:56:45;;;;;;;8.40;4.85;;;;;;;12.20;64.31;100727.19;4500491;31;20092;-68
2022/04/16 07:59:12;;;;;;;19.60;9.68;;;;;;;12.30;64.14;100731.47;4500335;31;20100;-68
2022/04/16 08:01:40;;;;;;;26.27;11.50;;;;;;;12.53;62.87;100736.41;4500198;31;20575;-68
2022/04/16 08:04:07;;;;;;;19.30;9.32;;;;;;;12.67;61.33;100729.16;4500313;31;20142;-68
2022/04/16 08:06:34;;;;;;;6.45;4.10;;;;;;;12.86;61.30;100728.87;4500270;31;20096;-67
2022/04/16 08:09:03;;;;;;;3.90;3.10;;;;;;;13.16;60.51;100728.37;4500374;31;20107;-67
2022/04/16 08:11:32;;;;;;;3.80;3.30;;;;;;;13.34;59.26;100737.81;4499953;31;20107;-66
2022/04/16 08:14:00;;;;;;;5.95;3.90;;;;;;;13.70;57.15;100738.03;4500079;31;20096;-66
2022/04/16 08:16:27;;;;;;;4.90;3.00;;;;;;;13.99;57.13;100734.84;4500070;31;20500;-67
2022/04/16 08:18:55;;;;;;;7.55;5.55;;;;;;;13.93;57.13;100736.72;4499968;31;20505;-67
2022/04/16 08:21:22;;;;;;;7.18;4.75;;;;;;;13.93;57.10;100734.94;4499932;31;20119;-66
2022/04/16 08:24:03;;;;;;;9.25;5.45;;;;;;;13.83;56.90;100738.69;4499792;31;20091;-66
2022/04/16 08:26:31;;;;;;;8.50;5.12;;;;;;;13.46;57.60;100742.00;4499705;31;20447;-66
2022/04/16 08:28:59;;;;;;;6.60;3.55;;;;;;;13.58;57.71;100740.91;4499785;31;20499;-66
2022/04/16 08:31:26;;;;;;;4.62;3.78;;;;;;;13.67;57.28;100740.72;4501198;31;20126;-67
2022/04/16 08:33:54;;;;;;;5.32;4.20;;;;;;;13.82;57.24;100736.94;4502159;31;20151;-66
2022/04/16 08:36:21;;;;;;;2.70;2.50;;;;;;;13.42;56.14;100736.78;4502177;31;20108;-66
2022/04/16 08:38:49;;;;;;;3.10;2.80;;;;;;;13.13;56.71;100748.72;4502283;31;20481;-66
2022/04/16 08:41:16;;;;;;;3.72;2.55;;;;;;;13.06;57.71;100745.31;4502196;31;20159;-66
2022/04/16 08:43:44;;;;;;;3.25;2.95;;;;;;;13.14;57.88;100748.72;4502069;31;20112;-66
2022/04/16 08:46:11;;;;;;;8.32;2.97;;;;;;;13.09;56.77;100742.59;4502221;31;20080;-66
2022/04/16 08:48:40;;;;;;;2.83;2.45;;;;;;;13.14;57.73;100756.66;4502311;31;20558;-66
2022/04/16 08:51:07;;;;;;;2.37;2.22;;;;;;;13.49;56.32;100744.59;4501879;31;20114;-66
2022/04/16 08:53:35;;;;;;;3.35;2.30;;;;;;;13.53;57.70;100751.59;4502178;31;20087;-66
2022/04/16 08:56:03;;;;;;;3.85;2.67;;;;;;;13.77;57.33;100752.91;4502046;31;20095;-67
2022/04/16 08:58:30;;;;;;;3.22;2.45;;;;;;;13.69;56.01;100757.47;4502095;31;20503;-66
2022/04/16 09:00:59;;;;;;;2.25;2.05;;;;;;;13.50;56.14;100764.91;4501992;31;20088;-66
2022/04/16 09:03:37;;;;;;;3.92;2.30;;;;;;;13.13;56.54;100756.66;4487379;31;20151;-66
2022/04/16 09:06:06;;;;;;;2.40;2.20;;;;;;;12.91;57.35;100758.78;4502134;31;20088;-66
2022/04/16 09:08:34;;;;;;;2.90;2.62;;;;;;;12.77;58.56;100760.75;4501907;31;20522;-66
2022/04/16 09:11:12;;;;;;;3.28;2.97;;;;;;;12.55;58.64;100760.22;4502091;31;20530;-66
2022/04/16 09:13:53;;;;;;;4.60;2.33;;;;;;;12.46;59.05;100755.03;4501981;31;20087;-66
2022/04/16 09:16:21;;;;;;;2.55;2.25;;;;;;;12.39;59.79;100762.16;4501947;31;20499;-66
2022/04/16 09:18:52;;;;;;;2.20;2.00;;;;;;;12.43;59.56;100767.38;4501817;31;20554;-66
2022/04/16 09:21:23;;;;;;;2.42;2.10;;;;;;;12.39;59.45;100765.69;4501755;31;20148;-66
2022/04/16 09:23:58;;;;;;;2.42;1.90;;;;;;;12.42;60.02;100764.78;4502210;31;20091;-66
2022/04/16 09:26:32;;;;;;;4.50;1.73;;;;;;;12.47;60.41;100768.22;4501823;31;20118;-66
2022/04/16 09:29:19;;;;;;;2.28;2.10;;;;;;;12.31;60.35;100761.41;4502155;31;20127;-66
2022/04/16 09:31:49;;;;;;;4.40;2.45;;;;;;;12.44;59.73;100768.28;4501617;31;20499;-66
2022/04/16 09:34:21;;;;;;;1.58;1.42;;;;;;;12.41;59.25;100758.63;4501776;31;20099;-66
2022/04/16 09:36:49;;;;;;;1.65;1.55;;;;;;;12.32;59.79;100768.44;4501764;31;20743;-66
2022/04/16 09:39:22;;;;;;;3.05;2.08;;;;;;;12.48;60.20;100770.00;4501918;31;20134;-66
2022/04/16 09:41:53;;;;;;;3.75;1.92;;;;;;;12.48;58.95;100766.47;4501485;31;20740;-66
2022/04/16 09:44:23;;;;;;;3.85;2.72;;;;;;;12.37;59.61;100769.25;4501687;31;20170;-66
2022/04/16 09:46:53;;;;;;;2.58;2.10;;;;;;;12.33;59.61;100776.34;4501865;31;20079;-66
2022/04/16 09:49:22;;;;;;;2.67;2.35;;;;;;;12.34;59.63;100764.00;4502009;31;20227;-66
2022/04/16 09:51:50;;;;;;;2.00;1.90;;;;;;;12.53;59.42;100764.62;4501386;31;20092;-66
2022/04/16 09:54:19;;;;;;;2.65;2.20;;;;;;;12.34;59.17;100775.44;4487088;31;20107;-68
2022/04/16 09:56:47;;;;;;;2.25;2.05;;;;;;;12.29;59.59;100771.09;4501761;31;20556;-68
2022/04/16 09:59:16;;;;;;;2.10;1.90;;;;;;;12.48;60.33;100766.47;4501618;31;20096;-68
2022/04/16 10:01:49;;;;;;;2.85;2.65;;;;;;;12.53;58.75;100764.62;4501745;31;20453;-68
2022/04/16 10:04:18;;;;;;;2.37;2.15;;;;;;;12.65;59.30;100767.12;4501599;31;20095;-68
2022/04/16 10:06:47;;;;;;;3.30;2.67;;;;;;;12.87;58.17;100765.87;4501622;31;20079;-68
2022/04/16 10:09:17;;;;;;;2.75;2.30;;;;;;;13.06;57.57;100765.59;4501627;31;20092;-68
2022/04/16 10:15:01;;;;;;;2.83;2.30;;;;;;;13.53;56.03;100758.66;4501766;31;20092;-68
2022/04/16 10:17:46;;;;;;;1.45;1.37;;;;;;;13.41;55.58;100758.87;4501707;31;20079;-68
2022/04/16 10:20:21;;;;;;;1.70;1.60;;;;;;;13.32;56.18;100760.78;4501584;31;20080;-66
2022/04/16 10:22:56;;;;;;;2.10;1.90;;;;;;;13.29;55.91;100767.91;4501542;31;20108;-66
2022/04/16 10:25:35;;;;;;;2.30;2.10;;;;;;;13.34;56.52;100758.09;4501400;31;20215;-66
2022/04/16 10:28:12;;;;;;;2.25;2.05;;;;;;;13.34;55.87;100769.56;4501709;31;20079;-66
2022/04/16 10:30:42;;;;;;;1.42;1.33;;;;;;;13.25;56.18;100764.44;4486991;31;20131;-66
2022/04/16 10:33:27;;;;;;;13.13;1.60;;;;;;;13.21;55.89;100765.34;4501462;31;20083;-66
2022/04/16 10:36:00;;;;;;;1.62;1.52;;;;;;;13.12;56.33;100768.16;4501497;31;20133;-66
2022/04/16 10:38:39;;;;;;;1.92;1.70;;;;;;;13.02;56.76;100766.53;4501469;31;20417;-66
2022/04/16 10:41:13;;;;;;;2.58;1.58;;;;;;;12.92;55.96;100771.09;4501516;31;20091;-68
2022/04/16 10:43:59;;;;;;;4.37;1.65;;;;;;;12.86;56.14;100768.53;4501494;31;20099;-68
2022/04/16 10:46:48;;;;;;;2.08;1.55;;;;;;;13.00;56.10;100758.63;4501349;31;20817;-68
2022/04/16 10:49:17;;;;;;;2.03;1.62;;;;;;;13.01;55.76;100755.09;4501334;31;20463;-68
2022/04/16 10:51:45;;;;;;;1.92;1.55;;;;;;;13.07;56.92;100757.66;4500983;31;20158;-68
2022/04/16 10:54:13;;;;;;;4.37;1.80;;;;;;;13.26;55.14;100754.72;4500158;31;20436;-66
2022/04/16 10:56:53;;;;;;;1.92;1.70;;;;;;;13.42;55.25;100758.84;4501214;31;20137;-66
2022/04/16 10:59:42;;;;;;;1.60;1.35;;;;;;;13.66;55.43;100765.47;4501274;31;20411;-66
2022/04/16 11:02:19;;;;;;;1.37;1.27;;;;;;;13.88;53.51;100750.91;4501284;31;20139;-67
2022/04/16 11:05:06;;;;;;;3.30;1.30;;;;;;;14.30;51.46;100756.25;4501105;31;20706;-66
2022/04/16 11:07:36;;;;;;;1.73;1.23;;;;;;;14.57;50.41;100753.94;4501366;31;20601;-66
2022/04/16 11:10:08;;;;;;;2.75;1.45;;;;;;;14.75;50.39;100755.31;4501133;31;20076;-66
2022/04/16 11:12:37;;;;;;;1.75;1.65;;;;;;;14.81;49.87;100756.03;4501128;31;20124;-66
2022/04/16 11:15:24;;;;;;;1.62;1.52;;;;;;;14.78;49.46;100761.41;4501196;31;20378;-66
2022/04/16 11:18:00;;;;;;;3.62;1.15;;;;;;;14.53;49.18;100757.56;4501196;31;20135;-66
2022/04/16 11:20:28;;;;;;;1.20;1.10;;;;;;;14.29;50.25;100759.81;4500972;31;20435;-66
2022/04/16 11:22:56;;;;;;;2.50;1.17;;;;;;;14.18;50.15;100753.00;4501050;31;20451;-66
2022/04/16 11:25:25;;;;;;;1.48;0.95;;;;;;;14.01;50.63;100764.81;4500718;31;20133;-66
2022/04/16 11:36:13;;;;;;;1.95;1.20;;;;;;;13.60;51.99;100757.62;4500815;31;20155;-66
2022/04/16 11:38:42;;;;;;;1.37;1.20;;;;;;;13.39;51.79;100745.66;4500741;31;20099;-68
2022/04/16 11:41:11;;;;;;;1.30;1.17;;;;;;;13.14;52.83;100751.38;4500641;31;20434;-66
2022/04/16 11:43:51;;;;;;;1.60;0.98;;;;;;;13.21;53.70;100749.47;4500645;31;20735;-66
2022/04/16 11:46:18;;;;;;;2.33;2.12;;;;;;;13.18;52.70;100752.19;4500494;31;20096;-66
2022/04/16 11:48:48;;;;;;;3.53;1.10;;;;;;;13.20;53.15;100738.91;4500379;31;20179;-66
2022/04/16 11:51:16;;;;;;;1.33;1.23;;;;;;;13.15;52.30;100746.94;4500568;31;20135;-66
2022/04/16 11:53:44;;;;;;;3.58;1.17;;;;;;;13.16;52.95;100753.97;4500276;31;20439;-66
2022/04/16 11:56:11;;;;;;;1.00;1.00;;;;;;;13.13;52.57;100752.25;4500290;31;20123;-66
2022/04/16 11:58:39;;;;;;;2.67;0.90;;;;;;;13.12;52.27;100747.00;4500366;31;20123;-66
2022/04/16 12:01:07;;;;;;;1.98;1.20;;;;;;;13.17;52.75;100737.19;4500695;31;20083;-66
2022/04/16 12:03:39;;;;;;;1.30;1.20;;;;;;;13.11;53.16;100751.41;4500200;31;20087;-66